sensor_id;sensor_type;location;lat;lon;timestamp;pressure;altitude;pressure_sealevel;temperature;humidity
64298;BME280;50639;53.270;7.956;2024-01-11T00:02:20;103449.09;;;-4.33;89.10
64298;BME280;50639;53.270;7.956;2024-01-11T00:04:45;103449.19;;;-4.31;89.09
64298;BME280;50639;53.270;7.956;2024-01-11T00:07:11;103450.63;;;-4.36;89.03
64298;BME280;50639;53.270;7.956;2024-01-11T00:09:41;103450.47;;;-4.39;88.64
64298;BME280;50639;53.270;7.956;2024-01-11T00:12:07;103458.03;;;-4.41;88.80
64298;BME280;50639;53.270;7.956;2024-01-11T00:14:32;103446.72;;;-4.49;88.66
64298;BME280;50639;53.270;7.956;2024-01-11T00:16:58;103441.78;;;-4.46;88.92
64298;BME280;50639;53.270;7.956;2024-01-11T00:19:23;103438.44;;;-4.45;89.18
64298;BME280;50639;53.270;7.956;2024-01-11T00:21:49;103426.59;;;-4.46;88.54
64298;BME280;50639;53.270;7.956;2024-01-11T00:24:14;103429.81;;;-4.50;88.50
64298;BME280;50639;53.270;7.956;2024-01-11T00:26:40;103441.53;;;-4.52;88.28
64298;BME280;50639;53.270;7.956;2024-01-11T00:29:07;103431.94;;;-4.59;88.75
64298;BME280;50639;53.270;7.956;2024-01-11T00:31:33;103431.34;;;-4.53;88.87
64298;BME280;50639;53.270;7.956;2024-01-11T00:33:58;103441.25;;;-4.58;89.35
64298;BME280;50639;53.270;7.956;2024-01-11T00:36:23;103430.13;;;-4.62;89.15
64298;BME280;50639;53.270;7.956;2024-01-11T00:38:49;103430.31;;;-4.57;88.77
64298;BME280;50639;53.270;7.956;2024-01-11T00:41:14;103431.19;;;-4.57;88.88
64298;BME280;50639;53.270;7.956;2024-01-11T00:43:40;103427.78;;;-4.57;88.61
64298;BME280;50639;53.270;7.956;2024-01-11T00:46:05;103433.00;;;-4.54;88.50
64298;BME280;50639;53.270;7.956;2024-01-11T00:48:31;103424.69;;;-4.51;89.06
64298;BME280;50639;53.270;7.956;2024-01-11T00:50:57;103417.91;;;-4.52;88.77
64298;BME280;50639;53.270;7.956;2024-01-11T00:53:22;103417.34;;;-4.45;89.08
64298;BME280;50639;53.270;7.956;2024-01-11T00:55:47;103409.69;;;-4.47;88.76
64298;BME280;50639;53.270;7.956;2024-01-11T00:58:13;103417.06;;;-4.90;89.01
64298;BME280;50639;53.270;7.956;2024-01-11T01:00:38;103420.22;;;-4.76;89.05
64298;BME280;50639;53.270;7.956;2024-01-11T01:03:04;103411.31;;;-4.68;88.82
64298;BME280;50639;53.270;7.956;2024-01-11T01:05:29;103408.09;;;-4.64;88.87
64298;BME280;50639;53.270;7.956;2024-01-11T01:07:55;103406.78;;;-4.56;88.83
64298;BME280;50639;53.270;7.956;2024-01-11T01:10:20;103388.50;;;-4.50;88.76
64298;BME280;50639;53.270;7.956;2024-01-11T01:12:45;103389.28;;;-4.51;88.93
64298;BME280;50639;53.270;7.956;2024-01-11T01:15:11;103385.97;;;-4.50;88.06
64298;BME280;50639;53.270;7.956;2024-01-11T01:17:37;103386.53;;;-4.56;88.93
64298;BME280;50639;53.270;7.956;2024-01-11T01:20:02;103395.53;;;-4.63;88.64
64298;BME280;50639;53.270;7.956;2024-01-11T01:22:28;103390.56;;;-4.61;88.00
64298;BME280;50639;53.270;7.956;2024-01-11T01:24:54;103396.00;;;-4.71;88.34
64298;BME280;50639;53.270;7.956;2024-01-11T01:27:19;103395.38;;;-4.66;88.03
64298;BME280;50639;53.270;7.956;2024-01-11T01:29:45;103397.34;;;-4.60;88.42
64298;BME280;50639;53.270;7.956;2024-01-11T01:32:11;103403.13;;;-4.63;87.86
64298;BME280;50639;53.270;7.956;2024-01-11T01:34:36;103400.00;;;-4.76;87.74
64298;BME280;50639;53.270;7.956;2024-01-11T01:37:01;103406.84;;;-4.74;88.02
64298;BME280;50639;53.270;7.956;2024-01-11T01:39:27;103400.53;;;-4.64;87.96
64298;BME280;50639;53.270;7.956;2024-01-11T01:41:52;103395.47;;;-4.64;88.09
64298;BME280;50639;53.270;7.956;2024-01-11T01:44:17;103381.06;;;-4.67;87.84
64298;BME280;50639;53.270;7.956;2024-01-11T01:46:43;103364.00;;;-4.71;88.03
64298;BME280;50639;53.270;7.956;2024-01-11T01:49:10;103369.94;;;-4.70;87.75
64298;BME280;50639;53.270;7.956;2024-01-11T01:51:36;103395.22;;;-4.70;87.18
64298;BME280;50639;53.270;7.956;2024-01-11T01:54:02;103381.22;;;-4.81;87.34
64298;BME280;50639;53.270;7.956;2024-01-11T01:56:29;103396.97;;;-5.06;87.77
64298;BME280;50639;53.270;7.956;2024-01-11T01:58:55;103392.16;;;-5.02;87.76
64298;BME280;50639;53.270;7.956;2024-01-11T02:01:21;103388.22;;;-4.95;87.68
64298;BME280;50639;53.270;7.956;2024-01-11T02:03:49;103385.75;;;-4.94;87.51
64298;BME280;50639;53.270;7.956;2024-01-11T02:06:15;103380.72;;;-4.94;87.95
64298;BME280;50639;53.270;7.956;2024-01-11T02:08:42;103387.63;;;-4.89;87.93
64298;BME280;50639;53.270;7.956;2024-01-11T02:11:08;103384.44;;;-4.85;87.94
64298;BME280;50639;53.270;7.956;2024-01-11T02:13:35;103383.63;;;-5.04;87.67
64298;BME280;50639;53.270;7.956;2024-01-11T02:16:00;103386.69;;;-5.11;87.89
64298;BME280;50639;53.270;7.956;2024-01-11T02:18:25;103392.72;;;-5.07;87.68
64298;BME280;50639;53.270;7.956;2024-01-11T02:20:51;103377.03;;;-5.00;87.31
64298;BME280;50639;53.270;7.956;2024-01-11T02:23:21;103394.31;;;-4.90;87.82
64298;BME280;50639;53.270;7.956;2024-01-11T02:25:49;103403.88;;;-5.21;88.17
64298;BME280;50639;53.270;7.956;2024-01-11T02:28:15;103389.78;;;-5.16;88.53
64298;BME280;50639;53.270;7.956;2024-01-11T02:30:40;103391.31;;;-5.01;88.15
64298;BME280;50639;53.270;7.956;2024-01-11T02:33:05;103392.00;;;-5.05;88.36
64298;BME280;50639;53.270;7.956;2024-01-11T02:35:31;103397.97;;;-4.83;87.79
64298;BME280;50639;53.270;7.956;2024-01-11T02:37:57;103396.38;;;-5.01;87.95
64298;BME280;50639;53.270;7.956;2024-01-11T02:40:24;103395.13;;;-4.91;88.66
64298;BME280;50639;53.270;7.956;2024-01-11T02:42:50;103420.56;;;-5.06;89.16
64298;BME280;50639;53.270;7.956;2024-01-11T02:45:16;103410.72;;;-5.00;89.39
64298;BME280;50639;53.270;7.956;2024-01-11T02:47:41;103404.50;;;-4.88;88.96
64298;BME280;50639;53.270;7.956;2024-01-11T02:50:07;103391.97;;;-4.68;88.58
64298;BME280;50639;53.270;7.956;2024-01-11T02:52:33;103386.69;;;-4.53;88.65
64298;BME280;50639;53.270;7.956;2024-01-11T02:54:58;103389.84;;;-4.38;88.54
64298;BME280;50639;53.270;7.956;2024-01-11T02:57:24;103380.50;;;-4.20;88.58
64298;BME280;50639;53.270;7.956;2024-01-11T02:59:51;103365.91;;;-4.06;88.52
64298;BME280;50639;53.270;7.956;2024-01-11T03:02:17;103372.81;;;-4.02;88.40
64298;BME280;50639;53.270;7.956;2024-01-11T03:04:42;103388.44;;;-3.91;87.94
64298;BME280;50639;53.270;7.956;2024-01-11T03:07:07;103392.84;;;-3.86;88.19
64298;BME280;50639;53.270;7.956;2024-01-11T03:09:33;103400.75;;;-3.78;88.44
64298;BME280;50639;53.270;7.956;2024-01-11T03:11:59;103401.69;;;-3.76;87.60
64298;BME280;50639;53.270;7.956;2024-01-11T03:14:25;103401.75;;;-3.74;87.29
64298;BME280;50639;53.270;7.956;2024-01-11T03:16:50;103408.56;;;-3.73;87.55
64298;BME280;50639;53.270;7.956;2024-01-11T03:19:16;103395.81;;;-3.75;87.72
64298;BME280;50639;53.270;7.956;2024-01-11T03:21:43;103390.16;;;-3.69;87.79
64298;BME280;50639;53.270;7.956;2024-01-11T03:24:09;103379.53;;;-3.61;87.36
64298;BME280;50639;53.270;7.956;2024-01-11T03:26:34;103373.59;;;-3.61;87.54
64298;BME280;50639;53.270;7.956;2024-01-11T03:29:00;103383.09;;;-3.56;87.31
64298;BME280;50639;53.270;7.956;2024-01-11T03:31:25;103373.69;;;-3.58;86.96
64298;BME280;50639;53.270;7.956;2024-01-11T03:33:51;103376.28;;;-3.57;86.96
64298;BME280;50639;53.270;7.956;2024-01-11T03:36:16;103381.22;;;-3.60;87.13
64298;BME280;50639;53.270;7.956;2024-01-11T03:38:42;103377.72;;;-3.63;87.05
64298;BME280;50639;53.270;7.956;2024-01-11T03:41:08;103382.06;;;-3.61;87.34
64298;BME280;50639;53.270;7.956;2024-01-11T03:43:35;103368.97;;;-3.71;87.02
64298;BME280;50639;53.270;7.956;2024-01-11T03:46:01;103372.09;;;-3.77;86.78
64298;BME280;50639;53.270;7.956;2024-01-11T03:48:26;103371.31;;;-3.76;86.68
64298;BME280;50639;53.270;7.956;2024-01-11T03:50:52;103368.03;;;-3.73;87.15
64298;BME280;50639;53.270;7.956;2024-01-11T03:53:17;103363.16;;;-3.69;87.17
64298;BME280;50639;53.270;7.956;2024-01-11T03:55:43;103359.88;;;-3.66;86.65
64298;BME280;50639;53.270;7.956;2024-01-11T03:58:08;103354.38;;;-3.56;86.45
64298;BME280;50639;53.270;7.956;2024-01-11T04:00:34;103372.91;;;-3.57;86.60
64298;BME280;50639;53.270;7.956;2024-01-11T04:02:59;103375.50;;;-3.56;86.82
64298;BME280;50639;53.270;7.956;2024-01-11T04:05:24;103371.28;;;-3.55;86.16
64298;BME280;50639;53.270;7.956;2024-01-11T04:07:50;103375.84;;;-3.47;86.51
64298;BME280;50639;53.270;7.956;2024-01-11T04:10:17;103367.59;;;-3.41;86.55
64298;BME280;50639;53.270;7.956;2024-01-11T04:12:43;103373.44;;;-3.44;86.78
64298;BME280;50639;53.270;7.956;2024-01-11T04:15:11;103376.06;;;-3.41;86.48
64298;BME280;50639;53.270;7.956;2024-01-11T04:17:38;103393.22;;;-3.33;86.19
64298;BME280;50639;53.270;7.956;2024-01-11T04:20:04;103403.41;;;-3.32;86.55
64298;BME280;50639;53.270;7.956;2024-01-11T04:22:30;103411.63;;;-3.60;86.27
64298;BME280;50639;53.270;7.956;2024-01-11T04:24:55;103421.88;;;-3.78;87.04
64298;BME280;50639;53.270;7.956;2024-01-11T04:27:20;103424.28;;;-4.01;87.74
64298;BME280;50639;53.270;7.956;2024-01-11T04:29:46;103418.63;;;-3.75;87.86
64298;BME280;50639;53.270;7.956;2024-01-11T04:32:11;103420.44;;;-3.50;87.92
64298;BME280;50639;53.270;7.956;2024-01-11T04:34:37;103414.19;;;-3.37;87.01
64298;BME280;50639;53.270;7.956;2024-01-11T04:37:02;103414.66;;;-3.25;86.69
64298;BME280;50639;53.270;7.956;2024-01-11T04:39:28;103418.59;;;-3.11;87.19
64298;BME280;50639;53.270;7.956;2024-01-11T04:41:53;103410.41;;;-3.04;86.21
64298;BME280;50639;53.270;7.956;2024-01-11T04:44:18;103425.09;;;-2.95;86.47
64298;BME280;50639;53.270;7.956;2024-01-11T04:46:44;103418.00;;;-2.82;85.96
64298;BME280;50639;53.270;7.956;2024-01-11T04:49:09;103407.63;;;-2.88;86.55
64298;BME280;50639;53.270;7.956;2024-01-11T04:51:35;103394.41;;;-2.79;86.79
64298;BME280;50639;53.270;7.956;2024-01-11T04:54:00;103400.34;;;-2.79;86.07
64298;BME280;50639;53.270;7.956;2024-01-11T04:56:26;103396.19;;;-2.77;86.25
64298;BME280;50639;53.270;7.956;2024-01-11T04:58:51;103403.22;;;-2.70;86.11
64298;BME280;50639;53.270;7.956;2024-01-11T05:01:17;103393.19;;;-2.67;85.55
64298;BME280;50639;53.270;7.956;2024-01-11T05:03:44;103398.66;;;-2.78;85.89
64298;BME280;50639;53.270;7.956;2024-01-11T05:06:20;103409.00;;;-2.74;86.21
64298;BME280;50639;53.270;7.956;2024-01-11T05:08:46;103397.38;;;-2.67;85.45
64298;BME280;50639;53.270;7.956;2024-01-11T05:11:19;103376.44;;;-2.61;85.55
64298;BME280;50639;53.270;7.956;2024-01-11T05:13:45;103388.31;;;-2.60;85.36
64298;BME280;50639;53.270;7.956;2024-01-11T05:16:22;103369.88;;;-2.56;85.87
64298;BME280;50639;53.270;7.956;2024-01-11T05:18:48;103369.09;;;-2.54;85.51
64298;BME280;50639;53.270;7.956;2024-01-11T05:21:14;103355.28;;;-2.62;85.76
64298;BME280;50639;53.270;7.956;2024-01-11T05:23:40;103349.03;;;-2.72;84.98
64298;BME280;50639;53.270;7.956;2024-01-11T05:26:08;103349.81;;;-2.74;85.20
64298;BME280;50639;53.270;7.956;2024-01-11T05:28:33;103349.75;;;-2.76;85.99
64298;BME280;50639;53.270;7.956;2024-01-11T05:30:59;103349.81;;;-2.73;85.25
64298;BME280;50639;53.270;7.956;2024-01-11T05:33:24;103355.81;;;-2.71;86.12
64298;BME280;50639;53.270;7.956;2024-01-11T05:35:49;103351.84;;;-2.64;86.11
64298;BME280;50639;53.270;7.956;2024-01-11T05:38:16;103346.06;;;-2.60;86.12
64298;BME280;50639;53.270;7.956;2024-01-11T05:40:41;103346.13;;;-2.58;85.33
64298;BME280;50639;53.270;7.956;2024-01-11T05:43:06;103352.25;;;-2.52;85.33
64298;BME280;50639;53.270;7.956;2024-01-11T05:45:32;103337.22;;;-2.46;85.94
64298;BME280;50639;53.270;7.956;2024-01-11T05:47:59;103332.13;;;-2.47;86.08
64298;BME280;50639;53.270;7.956;2024-01-11T05:50:25;103324.41;;;-2.50;85.90
64298;BME280;50639;53.270;7.956;2024-01-11T05:52:51;103314.25;;;-2.50;86.38
64298;BME280;50639;53.270;7.956;2024-01-11T05:55:17;103318.59;;;-2.48;86.06
64298;BME280;50639;53.270;7.956;2024-01-11T05:57:42;103325.47;;;-2.44;85.80
64298;BME280;50639;53.270;7.956;2024-01-11T06:00:08;103331.56;;;-2.39;85.63
64298;BME280;50639;53.270;7.956;2024-01-11T06:02:33;103345.38;;;-2.31;86.44
64298;BME280;50639;53.270;7.956;2024-01-11T06:05:01;103343.13;;;-2.21;85.78
64298;BME280;50639;53.270;7.956;2024-01-11T06:07:26;103327.03;;;-2.22;86.31
64298;BME280;50639;53.270;7.956;2024-01-11T06:09:51;103319.56;;;-2.17;85.64
64298;BME280;50639;53.270;7.956;2024-01-11T06:12:18;103325.63;;;-2.14;86.10
64298;BME280;50639;53.270;7.956;2024-01-11T06:14:43;103324.63;;;-2.17;85.74
64298;BME280;50639;53.270;7.956;2024-01-11T06:17:09;103323.69;;;-2.21;85.73
64298;BME280;50639;53.270;7.956;2024-01-11T06:19:37;103309.16;;;-2.25;85.69
64298;BME280;50639;53.270;7.956;2024-01-11T06:22:03;103308.50;;;-2.19;86.17
64298;BME280;50639;53.270;7.956;2024-01-11T06:24:28;103312.06;;;-2.14;86.56
64298;BME280;50639;53.270;7.956;2024-01-11T06:26:53;103307.31;;;-2.04;86.01
64298;BME280;50639;53.270;7.956;2024-01-11T06:29:19;103324.53;;;-1.95;86.29
64298;BME280;50639;53.270;7.956;2024-01-11T06:31:44;103339.03;;;-1.91;86.13
64298;BME280;50639;53.270;7.956;2024-01-11T06:34:10;103341.84;;;-1.82;86.28
64298;BME280;50639;53.270;7.956;2024-01-11T06:36:35;103346.13;;;-1.81;86.01
64298;BME280;50639;53.270;7.956;2024-01-11T06:39:00;103346.19;;;-1.79;85.88
64298;BME280;50639;53.270;7.956;2024-01-11T06:41:26;103339.19;;;-1.86;86.36
64298;BME280;50639;53.270;7.956;2024-01-11T06:43:51;103340.91;;;-1.85;86.86
64298;BME280;50639;53.270;7.956;2024-01-11T06:46:20;103334.06;;;-1.88;86.24
64298;BME280;50639;53.270;7.956;2024-01-11T06:48:47;103335.72;;;-1.88;86.35
64298;BME280;50639;53.270;7.956;2024-01-11T06:51:16;103340.06;;;-1.86;86.27
64298;BME280;50639;53.270;7.956;2024-01-11T06:53:41;103329.91;;;-1.84;86.78
64298;BME280;50639;53.270;7.956;2024-01-11T06:56:18;103332.31;;;-1.89;86.13
64298;BME280;50639;53.270;7.956;2024-01-11T06:58:45;103329.69;;;-1.92;87.13
64298;BME280;50639;53.270;7.956;2024-01-11T07:01:11;103326.28;;;-1.93;87.10
64298;BME280;50639;53.270;7.956;2024-01-11T07:03:37;103316.97;;;-1.92;86.74
64298;BME280;50639;53.270;7.956;2024-01-11T07:06:02;103328.16;;;-1.87;86.68
64298;BME280;50639;53.270;7.956;2024-01-11T07:08:30;103322.22;;;-1.87;86.92
64298;BME280;50639;53.270;7.956;2024-01-11T07:10:55;103323.22;;;-1.82;86.57
64298;BME280;50639;53.270;7.956;2024-01-11T07:13:22;103325.00;;;-1.80;87.36
64298;BME280;50639;53.270;7.956;2024-01-11T07:15:47;103328.53;;;-1.75;87.54
64298;BME280;50639;53.270;7.956;2024-01-11T07:18:17;103331.16;;;-1.72;87.28
64298;BME280;50639;53.270;7.956;2024-01-11T07:20:43;103330.31;;;-1.72;87.59
64298;BME280;50639;53.270;7.956;2024-01-11T07:23:09;103329.34;;;-1.76;87.86
64298;BME280;50639;53.270;7.956;2024-01-11T07:25:34;103323.88;;;-1.61;87.44
64298;BME280;50639;53.270;7.956;2024-01-11T07:28:01;103315.50;;;-1.57;87.51
64298;BME280;50639;53.270;7.956;2024-01-11T07:30:26;103312.84;;;-1.62;87.41
64298;BME280;50639;53.270;7.956;2024-01-11T07:32:52;103314.44;;;-1.65;86.76
64298;BME280;50639;53.270;7.956;2024-01-11T07:35:17;103315.44;;;-1.60;87.02
64298;BME280;50639;53.270;7.956;2024-01-11T07:37:42;103317.41;;;-1.52;87.42
64298;BME280;50639;53.270;7.956;2024-01-11T07:40:08;103327.03;;;-1.40;87.09
64298;BME280;50639;53.270;7.956;2024-01-11T07:42:37;103321.94;;;-1.40;87.25
64298;BME280;50639;53.270;7.956;2024-01-11T07:45:02;103309.22;;;-1.41;87.92
64298;BME280;50639;53.270;7.956;2024-01-11T07:47:28;103309.25;;;-1.40;87.55
64298;BME280;50639;53.270;7.956;2024-01-11T07:49:53;103321.34;;;-1.33;87.62
64298;BME280;50639;53.270;7.956;2024-01-11T07:52:18;103323.22;;;-1.26;87.04
64298;BME280;50639;53.270;7.956;2024-01-11T07:54:44;103332.78;;;-1.17;87.40
64298;BME280;50639;53.270;7.956;2024-01-11T07:57:09;103338.75;;;-1.17;87.01
64298;BME280;50639;53.270;7.956;2024-01-11T07:59:35;103341.34;;;-1.15;87.39
64298;BME280;50639;53.270;7.956;2024-01-11T08:02:01;103342.81;;;-1.22;87.50
64298;BME280;50639;53.270;7.956;2024-01-11T08:04:27;103343.94;;;-1.12;87.91
64298;BME280;50639;53.270;7.956;2024-01-11T08:06:52;103351.94;;;-1.00;87.93
64298;BME280;50639;53.270;7.956;2024-01-11T08:09:18;103354.56;;;-0.97;87.13
64298;BME280;50639;53.270;7.956;2024-01-11T08:11:43;103361.50;;;-0.91;88.03
64298;BME280;50639;53.270;7.956;2024-01-11T08:14:09;103348.22;;;-0.81;86.89
64298;BME280;50639;53.270;7.956;2024-01-11T08:16:34;103350.91;;;-0.75;87.50
64298;BME280;50639;53.270;7.956;2024-01-11T08:19:00;103354.44;;;-0.70;87.38
64298;BME280;50639;53.270;7.956;2024-01-11T08:21:28;103361.25;;;-0.69;87.33
64298;BME280;50639;53.270;7.956;2024-01-11T08:23:54;103349.34;;;-0.70;87.64
64298;BME280;50639;53.270;7.956;2024-01-11T08:26:20;103338.44;;;-0.66;87.45
64298;BME280;50639;53.270;7.956;2024-01-11T08:28:47;103341.13;;;-0.60;86.75
64298;BME280;50639;53.270;7.956;2024-01-11T08:31:12;103337.91;;;-0.54;87.41
64298;BME280;50639;53.270;7.956;2024-01-11T08:33:38;103341.19;;;-0.58;87.26
64298;BME280;50639;53.270;7.956;2024-01-11T08:36:04;103358.41;;;-0.48;86.76
64298;BME280;50639;53.270;7.956;2024-01-11T08:38:30;103347.31;;;-0.50;87.08
64298;BME280;50639;53.270;7.956;2024-01-11T08:40:56;103342.41;;;-0.44;87.56
64298;BME280;50639;53.270;7.956;2024-01-11T08:43:21;103344.97;;;-0.44;87.34
64298;BME280;50639;53.270;7.956;2024-01-11T08:45:47;103336.38;;;-0.48;87.32
64298;BME280;50639;53.270;7.956;2024-01-11T08:48:13;103334.84;;;-0.41;86.98
64298;BME280;50639;53.270;7.956;2024-01-11T08:50:38;103334.28;;;-0.29;87.12
64298;BME280;50639;53.270;7.956;2024-01-11T08:53:04;103341.34;;;-0.19;87.23
64298;BME280;50639;53.270;7.956;2024-01-11T08:55:30;103340.63;;;-0.14;86.96
64298;BME280;50639;53.270;7.956;2024-01-11T08:57:55;103346.75;;;-0.06;86.73
64298;BME280;50639;53.270;7.956;2024-01-11T09:00:22;103349.31;;;-0.06;86.53
64298;BME280;50639;53.270;7.956;2024-01-11T09:02:47;103345.88;;;-0.06;86.35
64298;BME280;50639;53.270;7.956;2024-01-11T09:05:14;103339.19;;;-0.03;87.22
64298;BME280;50639;53.270;7.956;2024-01-11T09:07:39;103338.44;;;0.02;86.78
64298;BME280;50639;53.270;7.956;2024-01-11T09:10:06;103342.78;;;0.06;86.92
64298;BME280;50639;53.270;7.956;2024-01-11T09:12:34;103348.75;;;0.06;87.11
64298;BME280;50639;53.270;7.956;2024-01-11T09:14:59;103348.91;;;0.14;86.79
64298;BME280;50639;53.270;7.956;2024-01-11T09:17:25;103350.72;;;0.19;87.31
64298;BME280;50639;53.270;7.956;2024-01-11T09:19:51;103350.03;;;0.25;87.32
64298;BME280;50639;53.270;7.956;2024-01-11T09:22:17;103344.06;;;0.24;87.21
64298;BME280;50639;53.270;7.956;2024-01-11T09:24:42;103349.22;;;0.27;87.42
64298;BME280;50639;53.270;7.956;2024-01-11T09:27:08;103358.72;;;0.33;87.00
64298;BME280;50639;53.270;7.956;2024-01-11T09:29:34;103358.88;;;0.41;86.99
64298;BME280;50639;53.270;7.956;2024-01-11T09:31:59;103360.66;;;0.45;87.33
64298;BME280;50639;53.270;7.956;2024-01-11T09:34:25;103362.41;;;0.47;87.25
64298;BME280;50639;53.270;7.956;2024-01-11T09:36:50;103359.84;;;0.46;87.22
64298;BME280;50639;53.270;7.956;2024-01-11T09:39:16;103360.66;;;0.45;87.91
64298;BME280;50639;53.270;7.956;2024-01-11T09:41:51;103362.47;;;0.49;87.35
64298;BME280;50639;53.270;7.956;2024-01-11T09:44:17;103364.16;;;0.48;87.84
64298;BME280;50639;53.270;7.956;2024-01-11T09:46:43;103365.91;;;0.51;87.47
64298;BME280;50639;53.270;7.956;2024-01-11T09:49:10;103363.38;;;0.51;88.23
64298;BME280;50639;53.270;7.956;2024-01-11T09:51:37;103366.03;;;0.57;87.95
64298;BME280;50639;53.270;7.956;2024-01-11T09:54:03;103366.06;;;0.58;87.96
64298;BME280;50639;53.270;7.956;2024-01-11T09:56:29;103369.44;;;0.57;88.25
64298;BME280;50639;53.270;7.956;2024-01-11T09:58:55;103353.47;;;0.66;88.38
64298;BME280;50639;53.270;7.956;2024-01-11T10:01:22;103339.00;;;0.65;88.34
64298;BME280;50639;53.270;7.956;2024-01-11T10:03:48;103343.22;;;0.63;88.05
64298;BME280;50639;53.270;7.956;2024-01-11T10:06:13;103335.59;;;0.64;88.03
64298;BME280;50639;53.270;7.956;2024-01-11T10:08:40;103338.19;;;0.66;88.24
64298;BME280;50639;53.270;7.956;2024-01-11T10:11:06;103333.91;;;0.65;88.48
64298;BME280;50639;53.270;7.956;2024-01-11T10:13:31;103333.88;;;0.63;88.78
64298;BME280;50639;53.270;7.956;2024-01-11T10:16:11;103328.84;;;0.66;88.88
64298;BME280;50639;53.270;7.956;2024-01-11T10:18:41;103320.50;;;0.73;89.26
64298;BME280;50639;53.270;7.956;2024-01-11T10:21:06;103319.66;;;0.74;89.26
64298;BME280;50639;53.270;7.956;2024-01-11T10:23:38;103317.16;;;0.76;89.30
64298;BME280;50639;53.270;7.956;2024-01-11T10:26:04;103318.22;;;0.87;89.33
64298;BME280;50639;53.270;7.956;2024-01-11T10:28:30;103312.38;;;0.93;89.13
64298;BME280;50639;53.270;7.956;2024-01-11T10:30:56;103308.22;;;0.96;88.65
64298;BME280;50639;53.270;7.956;2024-01-11T10:33:22;103311.69;;;1.01;89.26
64298;BME280;50639;53.270;7.956;2024-01-11T10:35:48;103300.59;;;0.99;88.87
64298;BME280;50639;53.270;7.956;2024-01-11T10:38:17;103300.66;;;1.02;89.27
64298;BME280;50639;53.270;7.956;2024-01-11T10:40:43;103300.81;;;1.10;88.97
64298;BME280;50639;53.270;7.956;2024-01-11T10:43:10;103294.94;;;1.14;89.29
64298;BME280;50639;53.270;7.956;2024-01-11T10:45:41;103308.63;;;1.19;89.59
64298;BME280;50639;53.270;7.956;2024-01-11T10:48:16;103309.53;;;1.21;89.43
64298;BME280;50639;53.270;7.956;2024-01-11T10:50:46;103303.75;;;1.31;89.41
64298;BME280;50639;53.270;7.956;2024-01-11T10:53:45;103309.72;;;1.33;89.20
64298;BME280;50639;53.270;7.956;2024-01-11T10:56:13;103301.31;;;1.37;89.02
64298;BME280;50639;53.270;7.956;2024-01-11T10:58:42;103296.16;;;1.36;89.27
64298;BME280;50639;53.270;7.956;2024-01-11T11:01:12;103302.16;;;1.38;89.13
64298;BME280;50639;53.270;7.956;2024-01-11T11:03:38;103293.69;;;1.39;89.25
64298;BME280;50639;53.270;7.956;2024-01-11T11:06:06;103293.00;;;1.50;89.11
64298;BME280;50639;53.270;7.956;2024-01-11T11:08:36;103289.50;;;1.44;89.15
64298;BME280;50639;53.270;7.956;2024-01-11T11:11:03;103290.38;;;1.46;89.48
64298;BME280;50639;53.270;7.956;2024-01-11T11:13:31;103281.09;;;1.49;89.13
64298;BME280;50639;53.270;7.956;2024-01-11T11:15:57;103276.03;;;1.52;89.31
64298;BME280;50639;53.270;7.956;2024-01-11T11:18:24;103266.72;;;1.56;89.26
64298;BME280;50639;53.270;7.956;2024-01-11T11:20:50;103270.13;;;1.55;89.32
64298;BME280;50639;53.270;7.956;2024-01-11T11:23:17;103270.97;;;1.56;89.23
64298;BME280;50639;53.270;7.956;2024-01-11T11:25:44;103278.59;;;1.54;89.25
64298;BME280;50639;53.270;7.956;2024-01-11T11:28:17;103272.50;;;1.46;88.98
64298;BME280;50639;53.270;7.956;2024-01-11T11:30:44;103278.50;;;1.48;89.60
64298;BME280;50639;53.270;7.956;2024-01-11T11:33:25;103275.06;;;1.46;89.53
64298;BME280;50639;53.270;7.956;2024-01-11T11:35:55;103287.19;;;1.59;89.58
64298;BME280;50639;53.270;7.956;2024-01-11T11:38:31;103287.19;;;1.58;89.61
64298;BME280;50639;53.270;7.956;2024-01-11T11:40:58;103296.66;;;1.65;89.52
64298;BME280;50639;53.270;7.956;2024-01-11T11:43:26;103300.13;;;1.70;88.60
64298;BME280;50639;53.270;7.956;2024-01-11T11:45:52;103295.81;;;1.64;89.73
64298;BME280;50639;53.270;7.956;2024-01-11T11:53:34;103285.69;;;1.72;89.36
64298;BME280;50639;53.270;7.956;2024-01-11T11:56:00;103275.53;;;1.75;89.25
64298;BME280;50639;53.270;7.956;2024-01-11T11:58:28;103283.19;;;1.73;89.56
64298;BME280;50639;53.270;7.956;2024-01-11T12:00:55;103281.50;;;1.77;89.46
64298;BME280;50639;53.270;7.956;2024-01-11T12:03:25;103262.00;;;1.80;89.56
64298;BME280;50639;53.270;7.956;2024-01-11T12:05:54;103258.63;;;1.83;89.57
64298;BME280;50639;53.270;7.956;2024-01-11T12:08:21;103263.63;;;1.75;90.06
64298;BME280;50639;53.270;7.956;2024-01-11T12:10:46;103270.56;;;1.84;89.42
64298;BME280;50639;53.270;7.956;2024-01-11T12:13:12;103268.09;;;1.90;89.35
64298;BME280;50639;53.270;7.956;2024-01-11T12:15:38;103265.59;;;1.93;89.06
64298;BME280;50639;53.270;7.956;2024-01-11T12:18:03;103270.69;;;1.92;88.75
64298;BME280;50639;53.270;7.956;2024-01-11T12:20:29;103265.47;;;1.85;89.03
64298;BME280;50639;53.270;7.956;2024-01-11T12:22:54;103266.38;;;1.89;89.49
64298;BME280;50639;53.270;7.956;2024-01-11T12:25:21;103255.38;;;1.95;89.37
64298;BME280;50639;53.270;7.956;2024-01-11T12:27:47;103256.22;;;1.94;89.57
64298;BME280;50639;53.270;7.956;2024-01-11T12:30:12;103240.06;;;1.96;89.11
64298;BME280;50639;53.270;7.956;2024-01-11T12:32:42;103247.84;;;2.04;89.15
64298;BME280;50639;53.270;7.956;2024-01-11T12:35:08;103243.56;;;2.01;89.13
64298;BME280;50639;53.270;7.956;2024-01-11T12:37:34;103246.16;;;2.04;89.11
64298;BME280;50639;53.270;7.956;2024-01-11T12:39:59;103252.13;;;2.05;89.76
64298;BME280;50639;53.270;7.956;2024-01-11T12:42:28;103249.63;;;2.08;89.39
64298;BME280;50639;53.270;7.956;2024-01-11T12:44:54;103236.09;;;2.16;89.59
64298;BME280;50639;53.270;7.956;2024-01-11T12:47:19;103230.09;;;2.14;89.57
64298;BME280;50639;53.270;7.956;2024-01-11T12:49:45;103226.78;;;2.21;89.46
64298;BME280;50639;53.270;7.956;2024-01-11T12:52:19;103219.16;;;2.24;89.15
64298;BME280;50639;53.270;7.956;2024-01-11T12:54:45;103216.59;;;2.23;89.07